Terminal Aerodrome Forecast
Issued by NWS Boston, MA

Home | Current Version | Previous Version | Text Only | Print | Product List | Glossary On
Versions: 1 2 3 4 5 6 7 8 9 10 11 12 13 14 15 16 17 18 19 20 21 22 23 24
000
FTUS41 KBOX 261743 AAE
TAFPVD
TAF AMD
KPVD 261743Z 2618/2718 16007KT P6SM FEW020 BKN250
     FM262000 16007KT P6SM SCT200
     FM270400 00000KT 6SM BR BKN003
     FM271000 00000KT 1/2SM FG OVC003
     FM271100 00000KT 1 1/2SM BR OVC003
     FM271500 14005KT 6SM BR BKN080=

USA.gov is the U.S. government's official web portal to all federal, state and local government web resources and services.